createdAt,value
2019-01-17T00:02:21.083Z,86.69
2019-01-17T00:05:09.625Z,86.52
2019-01-17T00:07:56.155Z,86.72
2019-01-17T00:10:53.178Z,86.44
2019-01-17T00:13:50.484Z,85.98
2019-01-17T00:16:56.526Z,86.29
2019-01-17T00:19:50.606Z,86.17
2019-01-17T00:22:43.215Z,86.33
2019-01-17T00:25:30.247Z,86.35
2019-01-17T00:28:20.936Z,85.77
2019-01-17T00:31:24.198Z,85.88
2019-01-17T00:34:07.604Z,85.86
2019-01-17T00:36:59.058Z,86.30
2019-01-17T00:40:02.253Z,86.74
2019-01-17T00:42:38.838Z,87.09
2019-01-17T00:45:28.274Z,86.59
2019-01-17T00:48:34.789Z,86.45
2019-01-17T00:51:21.050Z,86.63
2019-01-17T00:54:02.081Z,86.95
2019-01-17T00:56:56.115Z,86.89
2019-01-17T00:59:42.783Z,87.32
2019-01-17T01:02:30.816Z,87.08
2019-01-17T01:05:17.766Z,87.03
2019-01-17T01:08:17.741Z,87.36
2019-01-17T01:10:57.337Z,87.01
2019-01-17T01:13:45.398Z,87.21
2019-01-17T01:16:42.765Z,87.65
2019-01-17T01:19:39.997Z,87.51
2019-01-17T01:22:28.733Z,87.28
2019-01-17T01:25:14.851Z,87.39
2019-01-17T01:28:18.146Z,87.98
2019-01-17T01:31:00.588Z,87.98
2019-01-17T01:33:51.974Z,87.41
2019-01-17T01:36:38.403Z,87.73
2019-01-17T01:39:27.981Z,86.56
2019-01-17T01:42:14.674Z,87.53
2019-01-17T01:45:21.334Z,87.48
2019-01-17T01:48:05.151Z,87.46
2019-01-17T01:50:52.104Z,87.57
2019-01-17T01:53:21.209Z,87.89
2019-01-17T01:55:50.301Z,87.46
2019-01-17T01:58:19.375Z,87.41
2019-01-17T02:00:48.563Z,87.51
2019-01-17T02:03:17.678Z,87.85
2019-01-17T02:05:46.911Z,88.20
2019-01-17T02:08:16.103Z,88.33
2019-01-17T02:10:45.203Z,88.17
2019-01-17T02:13:14.349Z,87.81
2019-01-17T02:15:43.459Z,88.33
2019-01-17T02:18:12.496Z,88.60
2019-01-17T02:20:41.709Z,88.67
2019-01-17T02:23:10.840Z,88.44
2019-01-17T02:25:40.012Z,88.78
2019-01-17T02:28:09.184Z,88.77
2019-01-17T02:30:38.303Z,88.13
2019-01-17T02:33:07.430Z,88.13
2019-01-17T02:35:36.619Z,87.09
2019-01-17T02:38:05.691Z,85.35
2019-01-17T02:40:34.761Z,85.07
2019-01-17T02:43:04.017Z,85.45
2019-01-17T02:45:33.156Z,85.67
2019-01-17T02:48:02.197Z,86.22
2019-01-17T02:50:31.836Z,86.06
2019-01-17T02:53:00.977Z,86.57
2019-01-17T02:55:30.091Z,86.99
2019-01-17T02:57:59.426Z,86.62
2019-01-17T03:00:28.530Z,86.55
2019-01-17T03:02:57.584Z,87.10
2019-01-17T03:05:26.788Z,86.63
2019-01-17T03:07:55.882Z,86.84
2019-01-17T03:10:25.012Z,86.56
2019-01-17T03:12:54.339Z,86.58
2019-01-17T03:15:23.448Z,86.86
2019-01-17T03:17:52.732Z,86.96
2019-01-17T03:20:21.969Z,86.96
2019-01-17T03:22:51.070Z,86.85
2019-01-17T03:25:20.145Z,87.16
2019-01-17T03:27:49.294Z,87.38
2019-01-17T03:30:19.297Z,87.44
2019-01-17T03:32:48.442Z,87.19
2019-01-17T03:35:17.558Z,87.16
2019-01-17T03:37:46.715Z,86.96
2019-01-17T03:40:17.166Z,86.93
2019-01-17T03:42:46.407Z,86.82
2019-01-17T03:45:15.812Z,86.60
2019-01-17T03:47:44.863Z,86.25
2019-01-17T03:50:15.139Z,86.41
2019-01-17T03:52:44.286Z,86.39
2019-01-17T03:55:15.572Z,86.74
2019-01-17T03:57:44.795Z,86.54
2019-01-17T04:00:16.491Z,85.88
2019-01-17T04:02:45.605Z,85.70
2019-01-17T04:05:14.792Z,85.73
2019-01-17T04:07:43.891Z,86.11
2019-01-17T04:10:13.629Z,85.58
2019-01-17T04:12:43.038Z,85.84
2019-01-17T04:15:12.282Z,85.72
2019-01-17T04:17:41.435Z,85.70
2019-01-17T04:20:13.500Z,85.57
2019-01-17T04:22:42.608Z,85.01
2019-01-17T04:25:11.788Z,84.78
2019-01-17T04:27:40.995Z,85.09
2019-01-17T04:30:13.300Z,85.27
2019-01-17T04:32:42.368Z,84.92
2019-01-17T04:35:11.436Z,85.30
2019-01-17T04:37:40.552Z,84.81
2019-01-17T04:40:10.087Z,84.60
2019-01-17T04:42:39.273Z,84.18
2019-01-17T04:45:09.019Z,84.85
2019-01-17T04:47:38.303Z,84.23
2019-01-17T04:50:09.080Z,84.25
2019-01-17T04:52:38.184Z,84.68
2019-01-17T04:55:08.555Z,84.23
2019-01-17T04:57:37.610Z,84.06
2019-01-17T05:00:09.429Z,84.54
2019-01-17T05:02:38.563Z,84.59
2019-01-17T05:05:07.773Z,85.12
2019-01-17T05:07:37.058Z,84.75
2019-01-17T05:10:06.727Z,84.59
2019-01-17T05:12:35.836Z,85.15
2019-01-17T05:15:05.538Z,85.03
2019-01-17T05:17:34.659Z,85.34
2019-01-17T05:20:03.900Z,85.71
2019-01-17T05:22:33.097Z,86.22
2019-01-17T05:25:02.170Z,86.46
2019-01-17T05:27:31.242Z,86.06
2019-01-17T05:30:00.532Z,86.43
2019-01-17T05:32:36.471Z,86.46
2019-01-17T05:35:00.556Z,86.75
2019-01-17T05:37:29.867Z,86.76
2019-01-17T05:39:58.949Z,86.97
2019-01-17T05:42:28.047Z,86.47
2019-01-17T05:44:57.261Z,85.93
2019-01-17T05:47:26.378Z,86.31
2019-01-17T05:49:55.495Z,86.83
2019-01-17T05:52:24.968Z,87.15
2019-01-17T05:54:54.159Z,87.14
2019-01-17T05:57:23.301Z,87.75
2019-01-17T05:59:52.577Z,87.84
2019-01-17T06:02:21.633Z,87.86
2019-01-17T06:04:50.645Z,87.97
2019-01-17T06:07:19.875Z,88.19
2019-01-17T06:09:49.004Z,87.39
2019-01-17T06:12:18.150Z,87.21
2019-01-17T06:14:47.476Z,86.73
2019-01-17T06:17:16.579Z,86.67
2019-01-17T06:19:45.654Z,86.55
2019-01-17T06:22:14.892Z,86.13
2019-01-17T06:24:43.961Z,86.40
2019-01-17T06:27:13.033Z,86.36
2019-01-17T06:29:42.211Z,86.07
2019-01-17T06:32:11.326Z,86.20
2019-01-17T06:34:40.437Z,85.54
2019-01-17T06:37:09.676Z,85.88
2019-01-17T06:39:38.863Z,85.43
2019-01-17T06:42:07.977Z,85.71
2019-01-17T06:44:37.437Z,85.52
2019-01-17T06:47:06.569Z,85.14
2019-01-17T06:49:35.659Z,85.11
2019-01-17T06:52:04.941Z,84.75
2019-01-17T06:54:34.006Z,84.99
2019-01-17T06:57:03.097Z,84.83
2019-01-17T06:59:32.502Z,84.73
2019-01-17T07:02:01.642Z,85.72
2019-01-17T07:04:30.830Z,86.04
2019-01-17T07:07:00.133Z,86.38
2019-01-17T07:09:29.245Z,86.07
2019-01-17T07:11:58.416Z,85.87
2019-01-17T07:14:27.773Z,86.17
2019-01-17T07:16:56.852Z,86.40
2019-01-17T07:19:25.939Z,86.84
2019-01-17T07:21:55.253Z,86.69
2019-01-17T07:24:24.435Z,87.16
2019-01-17T07:26:53.527Z,87.48
2019-01-17T07:29:22.644Z,87.59
2019-01-17T07:31:51.731Z,87.63
2019-01-17T07:34:20.782Z,87.70
2019-01-17T07:36:49.847Z,87.21
2019-01-17T07:39:18.879Z,86.97
2019-01-17T07:41:47.948Z,86.99
2019-01-17T07:44:17.155Z,86.83
2019-01-17T07:46:46.196Z,86.70
2019-01-17T07:49:15.276Z,86.90
2019-01-17T07:51:44.629Z,87.11
2019-01-17T07:54:13.676Z,87.11
2019-01-17T07:56:42.791Z,87.56
2019-01-17T07:59:12.073Z,87.30
2019-01-17T08:01:41.211Z,87.42
2019-01-17T08:04:10.276Z,87.41
2019-01-17T08:06:39.399Z,86.90
2019-01-17T08:09:10.211Z,86.61
2019-01-17T08:11:39.273Z,85.95
2019-01-17T08:14:08.601Z,85.94
2019-01-17T08:16:37.645Z,85.38
2019-01-17T08:19:06.676Z,84.89
2019-01-17T08:21:35.934Z,84.37
2019-01-17T08:24:04.950Z,84.53
2019-01-17T08:26:34.003Z,84.41
2019-01-17T08:29:03.222Z,84.67
2019-01-17T08:31:32.250Z,84.15
2019-01-17T08:34:01.291Z,83.98
2019-01-17T08:36:30.409Z,83.41
2019-01-17T08:38:59.521Z,83.92
2019-01-17T08:41:28.565Z,83.96
2019-01-17T08:43:57.682Z,84.35
2019-01-17T08:46:26.828Z,83.94
2019-01-17T08:48:55.846Z,83.23
2019-01-17T08:51:24.969Z,84.07
2019-01-17T08:53:54.106Z,83.78
2019-01-17T08:56:23.140Z,83.55
2019-01-17T08:58:52.249Z,82.84
2019-01-17T09:01:21.322Z,83.82
2019-01-17T09:03:50.392Z,83.61
2019-01-17T09:06:19.532Z,83.33
2019-01-17T09:08:48.552Z,84.19
2019-01-17T09:11:17.604Z,84.61
2019-01-17T09:13:46.855Z,85.16
2019-01-17T09:16:15.911Z,85.47
2019-01-17T09:18:45.042Z,85.67
2019-01-17T09:21:14.346Z,86.35
2019-01-17T09:23:43.431Z,86.07
2019-01-17T09:26:12.612Z,86.02
2019-01-17T09:28:41.882Z,85.79
2019-01-17T09:31:10.907Z,85.97
2019-01-17T09:33:39.945Z,85.43
2019-01-17T09:36:09.096Z,85.60
2019-01-17T09:38:38.144Z,86.06
2019-01-17T09:41:07.176Z,86.29
2019-01-17T09:43:36.412Z,86.85
2019-01-17T09:46:05.467Z,86.74
2019-01-17T09:48:34.539Z,87.38
2019-01-17T09:51:03.711Z,86.66
2019-01-17T09:53:32.729Z,85.93
2019-01-17T09:56:01.828Z,86.72
2019-01-17T09:58:31.052Z,85.96
2019-01-17T10:01:00.069Z,86.01
2019-01-17T10:03:29.114Z,86.43
2019-01-17T10:05:58.357Z,86.67
2019-01-17T10:08:27.381Z,86.20
2019-01-17T10:10:56.420Z,85.85
2019-01-17T10:13:31.990Z,84.87
2019-01-17T10:16:24.696Z,84.34
2019-01-17T10:19:21.178Z,84.78
2019-01-17T10:22:18.300Z,85.09
2019-01-17T10:25:29.194Z,84.59
2019-01-17T10:28:48.744Z,84.60
2019-01-17T10:31:59.569Z,85.06
2019-01-17T10:35:01.143Z,84.37
2019-01-17T10:38:11.153Z,84.04
2019-01-17T10:40:55.617Z,83.58
2019-01-17T10:43:59.666Z,83.43
2019-01-17T10:46:51.613Z,82.62
2019-01-17T10:49:53.953Z,82.28
2019-01-17T10:52:35.129Z,81.96
2019-01-17T10:55:44.936Z,81.65
2019-01-17T10:58:45.159Z,82.68
2019-01-17T11:02:10.253Z,83.80
2019-01-17T11:05:15.956Z,83.17
2019-01-17T11:08:13.420Z,84.50
2019-01-17T11:11:04.444Z,83.64
2019-01-17T11:14:00.462Z,83.57
2019-01-17T11:17:17.022Z,84.13
2019-01-17T11:20:08.443Z,84.52
2019-01-17T11:23:07.556Z,84.32
2019-01-17T11:26:05.801Z,84.85
2019-01-17T11:29:15.766Z,85.21
2019-01-17T11:32:28.881Z,85.07
2019-01-17T11:35:44.516Z,85.79
2019-01-17T11:39:09.868Z,85.84
2019-01-17T11:42:14.904Z,85.15
2019-01-17T11:45:28.270Z,84.52
2019-01-17T11:48:29.955Z,85.10
2019-01-17T11:51:25.134Z,85.58
2019-01-17T11:54:53.323Z,86.54
2019-01-17T11:58:02.513Z,86.79
2019-01-17T12:00:47.428Z,85.04
2019-01-17T12:03:34.429Z,83.23
2019-01-17T12:06:03.538Z,83.02
2019-01-17T12:08:32.553Z,82.89
2019-01-17T12:11:01.802Z,83.21
2019-01-17T12:13:30.880Z,83.08
2019-01-17T12:15:59.953Z,84.14
2019-01-17T12:18:29.057Z,84.55
2019-01-17T12:20:58.054Z,85.04
2019-01-17T12:23:27.099Z,84.67
2019-01-17T12:25:56.175Z,85.51
2019-01-17T12:28:25.217Z,85.92
2019-01-17T12:30:54.293Z,86.30
2019-01-17T12:33:23.463Z,86.00
2019-01-17T12:35:52.501Z,85.83
2019-01-17T12:38:21.550Z,86.17
2019-01-17T12:40:50.852Z,85.40
2019-01-17T12:43:20.082Z,85.17
2019-01-17T12:45:49.270Z,83.78
2019-01-17T12:48:18.437Z,83.91
2019-01-17T12:50:47.500Z,84.11
2019-01-17T12:53:16.563Z,84.83
2019-01-17T12:55:45.727Z,84.21
2019-01-17T12:58:14.806Z,84.89
2019-01-17T13:00:43.946Z,85.20
2019-01-17T13:03:13.042Z,84.99
2019-01-17T13:05:42.135Z,85.27
2019-01-17T13:08:11.224Z,86.22
2019-01-17T13:10:40.264Z,85.43
2019-01-17T13:13:09.368Z,85.79
2019-01-17T13:15:38.420Z,85.70
2019-01-17T13:18:07.651Z,85.85
2019-01-17T13:20:36.873Z,85.64
2019-01-17T13:23:05.929Z,85.22
2019-01-17T13:25:35.086Z,85.56
2019-01-17T13:28:04.148Z,86.00
2019-01-17T13:30:33.185Z,86.12
2019-01-17T13:33:02.352Z,84.73
2019-01-17T13:35:31.449Z,85.58
2019-01-17T13:38:00.480Z,85.40
2019-01-17T13:40:29.696Z,85.81
2019-01-17T13:42:58.756Z,86.37
2019-01-17T13:45:27.799Z,86.74
2019-01-17T13:47:57.037Z,87.02
2019-01-17T13:50:26.099Z,86.63
2019-01-17T13:52:55.153Z,86.85
2019-01-17T13:55:24.398Z,87.19
2019-01-17T13:57:53.422Z,87.26
2019-01-17T14:00:23.427Z,87.64
2019-01-17T14:02:52.778Z,87.19
2019-01-17T14:05:21.844Z,87.15
2019-01-17T14:07:50.995Z,86.63
2019-01-17T14:10:20.142Z,86.75
2019-01-17T14:12:49.161Z,87.04
2019-01-17T14:15:24.111Z,87.29
2019-01-17T14:17:53.161Z,87.71
2019-01-17T14:20:22.182Z,87.35
2019-01-17T14:22:51.419Z,87.47
2019-01-17T14:25:20.455Z,87.24
2019-01-17T14:27:49.513Z,88.02
2019-01-17T14:30:27.080Z,87.73
2019-01-17T14:32:56.136Z,87.56
2019-01-17T14:35:25.232Z,87.78
2019-01-17T14:37:54.437Z,87.82
2019-01-17T14:40:23.499Z,87.90
2019-01-17T14:42:52.553Z,88.79
2019-01-17T14:45:21.926Z,89.40
2019-01-17T14:47:51.039Z,88.91
2019-01-17T14:50:22.489Z,89.27
2019-01-17T14:52:51.712Z,89.57
2019-01-17T14:55:20.729Z,89.62
2019-01-17T14:57:49.840Z,89.34
2019-01-17T15:00:21.054Z,89.33
2019-01-17T15:02:50.097Z,89.60
2019-01-17T15:05:19.221Z,90.03
2019-01-17T15:07:48.441Z,89.82
2019-01-17T15:10:26.252Z,89.57
2019-01-17T15:12:55.377Z,89.61
2019-01-17T15:15:24.413Z,89.34
2019-01-17T15:17:53.475Z,88.87
2019-01-17T15:20:22.747Z,89.08
2019-01-17T15:22:52.450Z,89.11
2019-01-17T15:25:21.497Z,88.82
2019-01-17T15:27:50.723Z,87.96
2019-01-17T15:30:21.893Z,87.87
2019-01-17T15:32:51.009Z,88.41
2019-01-17T15:35:20.318Z,88.49
2019-01-17T15:37:49.364Z,88.43
2019-01-17T15:40:23.719Z,88.15
2019-01-17T15:42:52.762Z,87.79
2019-01-17T15:45:21.806Z,88.15
2019-01-17T15:47:50.925Z,88.68
2019-01-17T15:50:19.947Z,89.30
2019-01-17T15:52:49.023Z,89.61
2019-01-17T15:55:18.209Z,90.08
2019-01-17T15:57:47.251Z,90.57
2019-01-17T16:00:22.315Z,90.80
2019-01-17T16:02:51.392Z,91.02
2019-01-17T16:05:20.440Z,91.20
2019-01-17T16:07:49.638Z,91.22
2019-01-17T16:10:18.736Z,90.88
2019-01-17T16:12:47.779Z,91.00
2019-01-17T16:15:21.395Z,91.11
2019-01-17T16:17:50.745Z,90.68
2019-01-17T16:20:19.845Z,90.43
2019-01-17T16:22:49.029Z,90.34
2019-01-17T16:25:18.136Z,90.34
2019-01-17T16:27:52.905Z,90.45
2019-01-17T16:30:26.278Z,89.66
2019-01-17T16:32:55.825Z,88.82
2019-01-17T16:35:25.115Z,88.91
2019-01-17T16:37:54.418Z,87.56
2019-01-17T16:40:23.498Z,85.80
2019-01-17T16:42:52.651Z,84.40
2019-01-17T16:45:22.488Z,84.07
2019-01-17T16:47:51.580Z,84.01
2019-01-17T16:50:22.588Z,84.52
2019-01-17T16:52:51.902Z,85.26
2019-01-17T16:55:21.024Z,85.10
2019-01-17T16:57:50.194Z,84.90
2019-01-17T17:00:30.959Z,84.90
2019-01-17T17:03:00.055Z,85.35
2019-01-17T17:05:29.187Z,85.13
2019-01-17T17:07:59.535Z,85.45
2019-01-17T17:10:28.691Z,85.27
2019-01-17T17:12:58.003Z,85.32
2019-01-17T17:15:27.268Z,85.19
2019-01-17T17:17:56.310Z,85.58
2019-01-17T17:20:25.414Z,86.03
2019-01-17T17:22:54.602Z,85.65
2019-01-17T17:25:23.630Z,85.45
2019-01-17T17:27:55.626Z,85.99
2019-01-17T17:30:25.738Z,85.06
2019-01-17T17:32:54.839Z,85.71
2019-01-17T17:35:23.911Z,85.86
2019-01-17T17:37:53.218Z,84.89
2019-01-17T17:40:27.323Z,84.85
2019-01-17T17:42:56.641Z,85.56
2019-01-17T17:45:25.753Z,84.94
2019-01-17T17:47:55.952Z,85.54
2019-01-17T17:50:25.145Z,85.10
2019-01-17T17:52:54.183Z,83.90
2019-01-17T17:55:23.283Z,83.17
2019-01-17T17:57:52.601Z,82.83
2019-01-17T18:00:30.316Z,82.80
2019-01-17T18:02:59.764Z,82.86
2019-01-17T18:05:28.972Z,83.91
2019-01-17T18:07:58.096Z,85.22
2019-01-17T18:10:27.205Z,84.46
2019-01-17T18:12:56.292Z,84.04
2019-01-17T18:15:25.346Z,84.02
2019-01-17T18:17:54.568Z,83.49
2019-01-17T18:20:23.695Z,84.22
2019-01-17T18:22:52.929Z,84.25
2019-01-17T18:25:22.129Z,84.42
2019-01-17T18:27:51.214Z,82.95
2019-01-17T18:30:21.752Z,84.03
2019-01-17T18:32:50.838Z,84.32
2019-01-17T18:35:19.941Z,84.27
2019-01-17T18:37:49.092Z,84.05
2019-01-17T18:40:18.471Z,83.78
2019-01-17T18:42:47.583Z,83.64
2019-01-17T18:45:18.438Z,83.91
2019-01-17T18:47:47.700Z,83.83
2019-01-17T18:50:19.257Z,83.78
2019-01-17T18:52:48.538Z,83.69
2019-01-17T18:55:17.706Z,84.08
2019-01-17T18:57:46.787Z,84.17
2019-01-17T19:00:20.694Z,83.92
2019-01-17T19:02:50.148Z,83.94
2019-01-17T19:05:19.278Z,84.13
2019-01-17T19:07:48.707Z,84.08
2019-01-17T19:10:18.311Z,83.55
2019-01-17T19:12:47.547Z,83.28
2019-01-17T19:15:19.136Z,83.05
2019-01-17T19:17:48.229Z,81.28
2019-01-17T19:20:17.819Z,80.48
2019-01-17T19:22:46.983Z,81.36
2019-01-17T19:25:16.102Z,81.61
2019-01-17T19:27:45.312Z,82.43
2019-01-17T19:30:19.753Z,81.54
2019-01-17T19:32:48.955Z,82.30
2019-01-17T19:35:18.224Z,81.12
2019-01-17T19:37:47.635Z,81.54
2019-01-17T19:40:18.386Z,81.06
2019-01-17T19:42:47.449Z,82.02
2019-01-17T19:45:16.858Z,82.04
2019-01-17T19:47:46.218Z,81.99
2019-01-17T19:50:36.068Z,81.10
2019-01-17T19:53:07.937Z,80.92
2019-01-17T19:55:37.196Z,81.06
2019-01-17T19:58:06.643Z,81.65
2019-01-17T20:00:35.841Z,79.20
2019-01-17T20:03:05.051Z,80.52
2019-01-17T20:05:34.761Z,81.64
2019-01-17T20:08:04.060Z,82.51
2019-01-17T20:10:35.351Z,80.85
2019-01-17T20:13:05.488Z,81.02
2019-01-17T20:15:34.718Z,80.36
2019-01-17T20:18:03.950Z,79.89
2019-01-17T20:20:33.874Z,80.33
2019-01-17T20:23:03.134Z,81.51
2019-01-17T20:25:32.507Z,81.37
2019-01-17T20:28:01.627Z,80.75
2019-01-17T20:30:32.648Z,81.29
2019-01-17T20:33:03.416Z,81.70
2019-01-17T20:35:32.586Z,81.57
2019-01-17T20:38:01.724Z,81.40
2019-01-17T20:40:30.931Z,80.68
2019-01-17T20:43:00.047Z,80.30
2019-01-17T20:45:29.131Z,79.52
2019-01-17T20:47:58.371Z,79.52
2019-01-17T20:50:34.263Z,79.81
2019-01-17T20:53:03.589Z,79.33
2019-01-17T20:55:32.780Z,79.62
2019-01-17T20:58:01.895Z,79.79
2019-01-17T21:01:15.291Z,80.68
2019-01-17T21:03:44.455Z,80.51
2019-01-17T21:06:13.563Z,80.50
2019-01-17T21:08:42.803Z,80.39
2019-01-17T21:11:11.977Z,81.77
2019-01-17T21:13:41.261Z,82.25
2019-01-17T21:16:10.396Z,82.58
2019-01-17T21:18:39.556Z,82.84
2019-01-17T21:21:08.664Z,82.21
2019-01-17T21:23:37.827Z,82.44
2019-01-17T21:26:06.924Z,82.76
2019-01-17T21:28:36.100Z,82.69
2019-01-17T21:31:05.220Z,82.83
2019-01-17T21:33:34.313Z,82.93
2019-01-17T21:36:03.471Z,82.26
2019-01-17T21:38:32.770Z,82.21
2019-01-17T21:41:01.960Z,82.14
2019-01-17T21:43:31.091Z,82.08
2019-01-17T21:46:00.293Z,82.59
2019-01-17T21:48:29.402Z,83.32
2019-01-17T21:50:58.472Z,83.36
2019-01-17T21:53:27.768Z,83.90
2019-01-17T21:55:56.829Z,84.03
2019-01-17T21:58:25.953Z,83.11
2019-01-17T22:00:56.003Z,82.33
2019-01-17T22:03:25.186Z,82.76
2019-01-17T22:05:54.271Z,81.99
2019-01-17T22:08:23.464Z,81.64
2019-01-17T22:10:52.593Z,82.40
2019-01-17T22:13:21.698Z,80.68
2019-01-17T22:15:50.963Z,81.71
2019-01-17T22:18:20.222Z,81.09
2019-01-17T22:20:49.297Z,81.73
2019-01-17T22:23:18.655Z,82.07
2019-01-17T22:25:48.022Z,82.14
2019-01-17T22:28:17.144Z,81.89
2019-01-17T22:30:46.426Z,82.45
2019-01-17T22:33:15.574Z,82.75
2019-01-17T22:35:44.695Z,83.31
2019-01-17T22:38:13.785Z,83.84
2019-01-17T22:40:42.972Z,83.66
2019-01-17T22:43:12.101Z,84.37
2019-01-17T22:45:41.372Z,83.70
2019-01-17T22:48:10.471Z,83.87
2019-01-17T22:50:39.641Z,83.75
2019-01-17T22:53:08.772Z,83.79
2019-01-17T22:55:37.910Z,83.85
2019-01-17T22:58:07.005Z,84.15
2019-01-17T23:01:01.131Z,83.87
2019-01-17T23:03:36.528Z,84.07
2019-01-17T23:06:05.646Z,84.18
2019-01-17T23:08:34.716Z,84.32
2019-01-17T23:11:03.886Z,84.06
2019-01-17T23:13:33.038Z,84.48
2019-01-17T23:16:02.144Z,84.34
2019-01-17T23:18:31.243Z,84.76
2019-01-17T23:21:00.397Z,84.80
2019-01-17T23:23:29.515Z,85.10
2019-01-17T23:25:58.650Z,85.51
2019-01-17T23:28:28.016Z,85.89
2019-01-17T23:30:57.100Z,85.94
2019-01-17T23:33:26.376Z,85.86
2019-01-17T23:35:55.569Z,86.03
2019-01-17T23:38:24.641Z,85.83
2019-01-17T23:40:53.831Z,85.87
2019-01-17T23:43:23.242Z,86.29
2019-01-17T23:45:52.336Z,86.10
2019-01-17T23:48:21.500Z,85.65
2019-01-17T23:50:50.837Z,85.64
2019-01-17T23:53:19.970Z,85.60
2019-01-17T23:55:49.154Z,85.59
2019-01-17T23:58:18.464Z,85.75
